Arlington, Ohio
Current Conditions -  °F | °C
As of 7:53 PM on Saturday 25 Oct 2014 (Local Time) from KFDY Reporting Station
Clear Clear  
Wind Chill: 61°   Ceiling: Unl
Heat Index: 61°   Visibility: 10mi
Dew Point: 36°   Wind: 17mph
Humidity: 39%   Direction: 290°WNW
Pressure: 29.84"   Gusts: 21mph
Location:  40.89°N, 83.65°W
Report Text: KFDY 252353Z AUTO 29015G18KT 10SM CLR 16/02 A2984 RMK AO2 SLP101 T01610022 10228 20156 53009
Loading
Personal Weather Stations






























Interactive Weather Map
Tropical Storm Tracking
New forecast layout! Learn more

10-Day Weather Forecast

Advertisements
Track Severe Weather on mobile